This is the latest recevied weather packets stored in our database for station/object WAYLND-WX. If no packets are shown the sender has not sent any weather packets the latest 10 day(s).
| Time | Temp. | Humidity | Pressure | Rain* | Wind** | Luminosity | Snow |
|---|---|---|---|---|---|---|---|
| 1777140941 | 15° C | 76% | 986.7 hPa | 0 mm | - | - | - |
| 1777140067 | 15° C | 76% | 986.7 hPa | 0 mm | - | - | - |
| 1777139142 | 14.44° C | 73% | 986.7 hPa | 0 mm | - | - | - |
| 1777138258 | 14.44° C | 73% | 986.3 hPa | 0 mm | - | - | - |
| 1777137342 | 15° C | 73% | 986.3 hPa | 0 mm | - | - | - |
| 1777136461 | 14.44° C | 73% | 986.3 hPa | 0 mm | - | - | - |
| 1777135542 | 14.44° C | 75% | 986 hPa | 0 mm | - | - | - |
| 1777134653 | 13.89° C | 78% | 986.2 hPa | 0 mm | - | - | - |
| 1777133742 | 13.33° C | 78% | 986.1 hPa | 0 mm | - | - | - |
| 1777132868 | 12.78° C | 78% | 986.1 hPa | 0 mm | - | - | - |
| 1777131942 | 12.78° C | 83% | 985.1 hPa | 0 mm | - | - | - |
| 1777131055 | 12.78° C | 82% | 985.4 hPa | 0 mm | - | - | - |
| 1777130142 | 12.78° C | 82% | 985.4 hPa | 0 mm | - | - | - |
| 1777129265 | 12.22° C | 82% | 985.4 hPa | 0 mm | - | - | - |
| 1777128342 | 11.67° C | 84% | 985.2 hPa | 0 mm | - | - | - |
| 1777127458 | 11.11° C | 82% | 985.8 hPa | 0 mm | - | - | - |
| 1777126542 | 11.11° C | 82% | 985.8 hPa | 0 mm | - | - | - |
| 1777125671 | 10.56° C | 82% | 985.8 hPa | 0 mm | - | - | - |
| 1777124741 | 10° C | 93% | 985.1 hPa | 0 mm | - | - | - |
| 1777123857 | 10° C | 93% | 985.1 hPa | 0 mm | - | - | - |
| 1777122942 | 9.44° C | 93% | 985.1 hPa | 0 mm | - | - | - |
| 1777122062 | 9.44° C | 93% | 985.1 hPa | 0 mm | - | - | - |
| 1777121140 | 8.89° C | 95% | 984.2 hPa | 0 mm | - | - | - |
| 1777120257 | 8.89° C | 92% | 984.6 hPa | 0 mm | - | - | - |
| 1777119340 | 8.89° C | 92% | 984.7 hPa | 0 mm | - | - | - |
* Rain latest hour (hover to see other rain measurements)
** Current wind speed in m/s (hover to see current wind gust speed)